sensor_id;sensor_type;location;lat;lon;timestamp;pressure;altitude;pressure_sealevel;temperature;humidity
35519;BME280;21627;48.216;16.482;2024-02-28T00:02:05;99553.97;;;11.09;100.00
35519;BME280;21627;48.216;16.482;2024-02-28T00:04:32;99568.59;;;11.22;100.00
35519;BME280;21627;48.216;16.482;2024-02-28T00:06:59;99564.31;;;11.13;100.00
35519;BME280;21627;48.216;16.482;2024-02-28T00:09:26;99571.19;;;11.17;100.00
35519;BME280;21627;48.216;16.482;2024-02-28T00:11:54;99571.19;;;11.16;100.00
35519;BME280;21627;48.216;16.482;2024-02-28T00:14:21;99568.63;;;11.14;100.00
35519;BME280;21627;48.216;16.482;2024-02-28T00:16:48;99578.94;;;11.20;100.00
35519;BME280;21627;48.216;16.482;2024-02-28T00:19:15;99572.88;;;11.23;100.00
35519;BME280;21627;48.216;16.482;2024-02-28T00:21:44;99582.38;;;11.24;100.00
35519;BME280;21627;48.216;16.482;2024-02-28T00:24:11;99580.69;;;11.15;100.00
35519;BME280;21627;48.216;16.482;2024-02-28T00:26:43;99586.75;;;11.08;100.00
35519;BME280;21627;48.216;16.482;2024-02-28T00:29:10;99569.56;;;10.98;100.00
35519;BME280;21627;48.216;16.482;2024-02-28T00:31:37;99583.31;;;11.08;100.00
35519;BME280;21627;48.216;16.482;2024-02-28T00:34:04;99584.19;;;11.05;100.00
35519;BME280;21627;48.216;16.482;2024-02-28T00:36:33;99580.78;;;11.01;100.00
35519;BME280;21627;48.216;16.482;2024-02-28T00:39:17;99568.69;;;10.96;100.00
35519;BME280;21627;48.216;16.482;2024-02-28T00:41:44;99571.28;;;10.96;100.00
35519;BME280;21627;48.216;16.482;2024-02-28T00:44:11;99575.59;;;10.97;100.00
35519;BME280;21627;48.216;16.482;2024-02-28T00:46:39;99578.22;;;10.94;100.00
35519;BME280;21627;48.216;16.482;2024-02-28T00:49:06;99579.09;;;10.91;100.00
35519;BME280;21627;48.216;16.482;2024-02-28T00:51:34;99579.97;;;10.87;100.00
35519;BME280;21627;48.216;16.482;2024-02-28T00:54:03;99579.09;;;10.87;100.00
35519;BME280;21627;48.216;16.482;2024-02-28T00:56:30;99584.25;;;10.91;100.00
35519;BME280;21627;48.216;16.482;2024-02-28T00:58:58;99591.97;;;10.96;100.00
35519;BME280;21627;48.216;16.482;2024-02-28T01:01:25;99577.31;;;10.98;100.00
35519;BME280;21627;48.216;16.482;2024-02-28T01:03:52;99593.66;;;11.06;100.00
35519;BME280;21627;48.216;16.482;2024-02-28T01:06:19;99582.47;;;11.01;100.00
35519;BME280;21627;48.216;16.482;2024-02-28T01:08:47;99587.66;;;11.02;100.00
35519;BME280;21627;48.216;16.482;2024-02-28T01:11:14;99591.94;;;11.08;100.00
35519;BME280;21627;48.216;16.482;2024-02-28T01:13:41;99585.03;;;11.09;100.00
35519;BME280;21627;48.216;16.482;2024-02-28T01:16:08;99591.94;;;11.08;100.00
35519;BME280;21627;48.216;16.482;2024-02-28T01:18:35;99588.50;;;11.04;100.00
35519;BME280;21627;48.216;16.482;2024-02-28T01:21:03;99591.09;;;11.03;100.00
35519;BME280;21627;48.216;16.482;2024-02-28T01:23:30;99590.22;;;11.12;100.00
35519;BME280;21627;48.216;16.482;2024-02-28T01:25:58;99596.22;;;11.11;100.00
35519;BME280;21627;48.216;16.482;2024-02-28T01:28:25;99591.09;;;11.00;100.00
35519;BME280;21627;48.216;16.482;2024-02-28T01:30:52;99596.22;;;11.12;100.00
35519;BME280;21627;48.216;16.482;2024-02-28T01:33:19;99591.09;;;11.04;100.00
35519;BME280;21627;48.216;16.482;2024-02-28T01:35:47;99599.72;;;11.00;100.00
35519;BME280;21627;48.216;16.482;2024-02-28T01:38:14;99594.56;;;10.97;100.00
35519;BME280;21627;48.216;16.482;2024-02-28T01:40:45;99592.00;;;10.93;100.00
35519;BME280;21627;48.216;16.482;2024-02-28T01:43:13;99597.16;;;10.93;100.00
35519;BME280;21627;48.216;16.482;2024-02-28T01:45:41;99596.34;;;10.89;100.00
35519;BME280;21627;48.216;16.482;2024-02-28T01:48:09;99589.44;;;10.90;100.00
35519;BME280;21627;48.216;16.482;2024-02-28T01:50:38;99590.28;;;10.86;100.00
35519;BME280;21627;48.216;16.482;2024-02-28T01:53:09;99592.03;;;10.85;100.00
35519;BME280;21627;48.216;16.482;2024-02-28T01:55:38;99577.41;;;10.81;100.00
35519;BME280;21627;48.216;16.482;2024-02-28T01:58:06;99586.88;;;10.83;100.00
35519;BME280;21627;48.216;16.482;2024-02-28T02:00:34;99593.75;;;10.83;100.00
35519;BME280;21627;48.216;16.482;2024-02-28T02:03:02;99594.66;;;10.77;100.00
35519;BME280;21627;48.216;16.482;2024-02-28T02:05:30;99599.84;;;10.74;100.00
35519;BME280;21627;48.216;16.482;2024-02-28T02:07:57;99592.09;;;10.71;100.00
35519;BME280;21627;48.216;16.482;2024-02-28T02:10:26;99597.25;;;10.71;100.00
35519;BME280;21627;48.216;16.482;2024-02-28T02:12:53;99603.28;;;10.70;100.00
35519;BME280;21627;48.216;16.482;2024-02-28T02:15:20;99588.66;;;10.66;100.00
35519;BME280;21627;48.216;16.482;2024-02-28T02:17:47;99583.50;;;10.66;100.00
35519;BME280;21627;48.216;16.482;2024-02-28T02:20:15;99584.31;;;10.68;100.00
35519;BME280;21627;48.216;16.482;2024-02-28T02:22:43;99591.22;;;10.69;100.00
35519;BME280;21627;48.216;16.482;2024-02-28T02:25:10;99587.78;;;10.63;100.00
35519;BME280;21627;48.216;16.482;2024-02-28T02:27:38;99605.03;;;10.62;100.00
35519;BME280;21627;48.216;16.482;2024-02-28T02:30:06;99598.16;;;10.61;100.00
35519;BME280;21627;48.216;16.482;2024-02-28T02:32:33;99603.34;;;10.56;100.00
35519;BME280;21627;48.216;16.482;2024-02-28T02:35:00;99608.50;;;10.52;100.00
35519;BME280;21627;48.216;16.482;2024-02-28T02:37:27;99601.63;;;10.48;100.00
35519;BME280;21627;48.216;16.482;2024-02-28T02:39:54;99596.44;;;10.43;100.00
35519;BME280;21627;48.216;16.482;2024-02-28T02:42:22;99602.50;;;10.42;100.00
35519;BME280;21627;48.216;16.482;2024-02-28T02:44:49;99598.22;;;10.33;100.00
35519;BME280;21627;48.216;16.482;2024-02-28T02:47:16;99611.97;;;10.32;100.00
35519;BME280;21627;48.216;16.482;2024-02-28T02:49:43;99600.78;;;10.26;100.00
35519;BME280;21627;48.216;16.482;2024-02-28T02:52:11;99608.50;;;10.23;100.00
35519;BME280;21627;48.216;16.482;2024-02-28T02:54:38;99606.78;;;10.20;100.00
35519;BME280;21627;48.216;16.482;2024-02-28T02:57:05;99599.03;;;10.17;100.00
35519;BME280;21627;48.216;16.482;2024-02-28T02:59:32;99604.22;;;10.17;100.00
35519;BME280;21627;48.216;16.482;2024-02-28T03:01:59;99610.25;;;10.11;100.00
35519;BME280;21627;48.216;16.482;2024-02-28T03:04:26;99616.28;;;10.15;100.00
35519;BME280;21627;48.216;16.482;2024-02-28T03:06:53;99610.25;;;10.11;100.00
35519;BME280;21627;48.216;16.482;2024-02-28T03:09:20;99618.88;;;10.09;100.00
35519;BME280;21627;48.216;16.482;2024-02-28T03:11:48;99618.00;;;10.07;100.00
35519;BME280;21627;48.216;16.482;2024-02-28T03:14:16;99619.72;;;10.14;100.00
35519;BME280;21627;48.216;16.482;2024-02-28T03:16:43;99636.06;;;10.27;100.00
35519;BME280;21627;48.216;16.482;2024-02-28T03:19:11;99637.81;;;10.14;100.00
35519;BME280;21627;48.216;16.482;2024-02-28T03:21:38;99642.97;;;10.06;100.00
35519;BME280;21627;48.216;16.482;2024-02-28T03:24:05;99655.00;;;10.03;100.00
35519;BME280;21627;48.216;16.482;2024-02-28T03:26:32;99643.84;;;9.96;100.00
35519;BME280;21627;48.216;16.482;2024-02-28T03:29:00;99642.09;;;9.92;100.00
35519;BME280;21627;48.216;16.482;2024-02-28T03:31:27;99651.56;;;9.91;100.00
35519;BME280;21627;48.216;16.482;2024-02-28T03:33:54;99656.75;;;9.88;100.00
35519;BME280;21627;48.216;16.482;2024-02-28T03:36:22;99650.69;;;9.80;100.00
35519;BME280;21627;48.216;16.482;2024-02-28T03:38:49;99658.44;;;9.80;100.00
35519;BME280;21627;48.216;16.482;2024-02-28T03:41:16;99659.31;;;9.79;100.00
35519;BME280;21627;48.216;16.482;2024-02-28T03:43:43;99663.63;;;9.75;100.00
35519;BME280;21627;48.216;16.482;2024-02-28T03:46:10;99660.16;;;9.77;100.00
35519;BME280;21627;48.216;16.482;2024-02-28T03:48:37;99651.53;;;9.70;100.00
35519;BME280;21627;48.216;16.482;2024-02-28T03:51:04;99667.88;;;9.72;100.00
35519;BME280;21627;48.216;16.482;2024-02-28T03:53:32;99669.63;;;9.78;100.00
35519;BME280;21627;48.216;16.482;2024-02-28T03:55:59;99673.94;;;9.68;100.00
35519;BME280;21627;48.216;16.482;2024-02-28T03:58:28;99675.63;;;9.61;100.00
35519;BME280;21627;48.216;16.482;2024-02-28T04:00:55;99667.84;;;9.53;100.00
35519;BME280;21627;48.216;16.482;2024-02-28T04:03:22;99678.16;;;9.46;100.00
35519;BME280;21627;48.216;16.482;2024-02-28T04:05:49;99676.44;;;9.43;100.00
35519;BME280;21627;48.216;16.482;2024-02-28T04:08:16;99689.28;;;9.37;100.00
35519;BME280;21627;48.216;16.482;2024-02-28T04:10:44;99690.13;;;9.28;100.00
35519;BME280;21627;48.216;16.482;2024-02-28T04:13:11;99688.38;;;9.18;100.00
35519;BME280;21627;48.216;16.482;2024-02-28T04:15:38;99683.19;;;9.14;100.00
35519;BME280;21627;48.216;16.482;2024-02-28T04:18:05;99701.22;;;9.12;100.00
35519;BME280;21627;48.216;16.482;2024-02-28T04:20:34;99706.38;;;9.07;100.00
35519;BME280;21627;48.216;16.482;2024-02-28T04:23:01;99693.44;;;9.04;100.00
35519;BME280;21627;48.216;16.482;2024-02-28T04:25:28;99695.16;;;9.01;100.00
35519;BME280;21627;48.216;16.482;2024-02-28T04:27:55;99712.34;;;8.97;100.00
35519;BME280;21627;48.216;16.482;2024-02-28T04:30:24;99712.34;;;9.00;100.00
35519;BME280;21627;48.216;16.482;2024-02-28T04:32:51;99708.00;;;8.90;100.00
35519;BME280;21627;48.216;16.482;2024-02-28T04:35:18;99716.63;;;8.92;100.00
35519;BME280;21627;48.216;16.482;2024-02-28T04:37:48;99715.66;;;8.81;100.00
35519;BME280;21627;48.216;16.482;2024-02-28T04:40:15;99724.28;;;8.83;100.00
35519;BME280;21627;48.216;16.482;2024-02-28T04:42:43;99706.22;;;8.81;100.00
35519;BME280;21627;48.216;16.482;2024-02-28T04:45:10;99729.41;;;8.78;100.00
35519;BME280;21627;48.216;16.482;2024-02-28T04:47:38;99731.09;;;8.75;100.00
35519;BME280;21627;48.216;16.482;2024-02-28T04:50:11;99731.94;;;8.74;100.00
35519;BME280;21627;48.216;16.482;2024-02-28T04:52:38;99732.75;;;8.66;100.00
35519;BME280;21627;48.216;16.482;2024-02-28T04:55:06;99743.94;;;8.67;100.00
35519;BME280;21627;48.216;16.482;2024-02-28T04:57:33;99743.06;;;8.66;100.00
35519;BME280;21627;48.216;16.482;2024-02-28T05:00:00;99727.56;;;8.63;100.00
35519;BME280;21627;48.216;16.482;2024-02-28T05:02:27;99747.28;;;8.58;100.00
35519;BME280;21627;48.216;16.482;2024-02-28T05:04:54;99743.00;;;8.54;100.00
35519;BME280;21627;48.216;16.482;2024-02-28T05:07:22;99748.94;;;8.50;100.00
35519;BME280;21627;48.216;16.482;2024-02-28T05:09:49;99754.91;;;8.46;100.00
35519;BME280;21627;48.216;16.482;2024-02-28T05:12:16;99751.47;;;8.45;100.00
35519;BME280;21627;48.216;16.482;2024-02-28T05:14:43;99744.56;;;8.40;100.00
35519;BME280;21627;48.216;16.482;2024-02-28T05:17:11;99755.69;;;8.39;100.00
35519;BME280;21627;48.216;16.482;2024-02-28T05:19:39;99753.97;;;8.38;100.00
35519;BME280;21627;48.216;16.482;2024-02-28T05:22:06;99747.88;;;8.31;100.00
35519;BME280;21627;48.216;16.482;2024-02-28T05:24:33;99760.75;;;8.27;100.00
35519;BME280;21627;48.216;16.482;2024-02-28T05:27:01;99751.19;;;8.18;100.00
35519;BME280;21627;48.216;16.482;2024-02-28T05:29:28;99751.16;;;8.12;100.00
35519;BME280;21627;48.216;16.482;2024-02-28T05:31:55;99747.66;;;8.08;100.00
35519;BME280;21627;48.216;16.482;2024-02-28T05:34:22;99765.75;;;8.13;100.00
35519;BME280;21627;48.216;16.482;2024-02-28T05:36:49;99764.81;;;8.06;100.00
35519;BME280;21627;48.216;16.482;2024-02-28T05:39:17;99756.97;;;7.95;100.00
35519;BME280;21627;48.216;16.482;2024-02-28T05:41:45;99775.03;;;7.97;100.00
35519;BME280;21627;48.216;16.482;2024-02-28T05:44:12;99788.72;;;7.96;100.00
35519;BME280;21627;48.216;16.482;2024-02-28T05:46:39;99791.31;;;7.94;100.00
35519;BME280;21627;48.216;16.482;2024-02-28T05:49:07;99782.63;;;7.85;100.00
35519;BME280;21627;48.216;16.482;2024-02-28T05:51:35;99786.03;;;7.82;100.00
35519;BME280;21627;48.216;16.482;2024-02-28T05:54:03;99796.34;;;7.85;100.00
35519;BME280;21627;48.216;16.482;2024-02-28T05:56:30;99797.16;;;7.79;100.00
35519;BME280;21627;48.216;16.482;2024-02-28T05:58:58;99803.16;;;7.80;100.00
35519;BME280;21627;48.216;16.482;2024-02-28T06:01:25;99816.06;;;7.82;100.00
35519;BME280;21627;48.216;16.482;2024-02-28T06:03:53;99817.66;;;7.75;100.00
35519;BME280;21627;48.216;16.482;2024-02-28T06:06:20;99807.31;;;7.70;100.00
35519;BME280;21627;48.216;16.482;2024-02-28T06:08:47;99825.38;;;7.72;100.00
35519;BME280;21627;48.216;16.482;2024-02-28T06:11:14;99823.59;;;7.68;100.00
35519;BME280;21627;48.216;16.482;2024-02-28T06:13:41;99838.22;;;7.72;100.00
35519;BME280;21627;48.216;16.482;2024-02-28T06:16:14;99843.34;;;7.70;100.00
35519;BME280;21627;48.216;16.482;2024-02-28T06:18:42;99848.63;;;7.79;100.00
35519;BME280;21627;48.216;16.482;2024-02-28T06:21:09;99835.66;;;7.72;100.00
35519;BME280;21627;48.216;16.482;2024-02-28T06:23:36;99839.06;;;7.71;100.00
35519;BME280;21627;48.216;16.482;2024-02-28T06:26:03;99849.41;;;7.75;100.00
35519;BME280;21627;48.216;16.482;2024-02-28T06:28:30;99855.41;;;7.76;100.00
35519;BME280;21627;48.216;16.482;2024-02-28T06:30:59;99846.84;;;7.74;100.00
35519;BME280;21627;48.216;16.482;2024-02-28T06:33:26;99857.16;;;7.77;100.00
35519;BME280;21627;48.216;16.482;2024-02-28T06:35:53;99870.03;;;7.78;100.00
35519;BME280;21627;48.216;16.482;2024-02-28T06:38:21;99873.53;;;7.84;100.00
35519;BME280;21627;48.216;16.482;2024-02-28T06:40:48;99873.53;;;7.84;100.00
35519;BME280;21627;48.216;16.482;2024-02-28T06:43:15;99875.31;;;7.86;100.00
35519;BME280;21627;48.216;16.482;2024-02-28T06:45:43;99877.06;;;7.90;100.00
35519;BME280;21627;48.216;16.482;2024-02-28T06:48:10;99882.25;;;7.92;100.00
35519;BME280;21627;48.216;16.482;2024-02-28T06:50:37;99890.03;;;7.98;100.00
35519;BME280;21627;48.216;16.482;2024-02-28T06:53:04;99887.50;;;8.01;100.00
35519;BME280;21627;48.216;16.482;2024-02-28T06:55:31;99890.97;;;8.01;100.00
35519;BME280;21627;48.216;16.482;2024-02-28T06:57:59;99902.97;;;8.02;100.00
35519;BME280;21627;48.216;16.482;2024-02-28T07:00:26;99900.44;;;8.04;100.00
35519;BME280;21627;48.216;16.482;2024-02-28T07:02:53;99902.25;;;8.13;100.00
35519;BME280;21627;48.216;16.482;2024-02-28T07:05:21;99898.91;;;8.20;100.00
35519;BME280;21627;48.216;16.482;2024-02-28T07:07:49;99900.66;;;8.22;100.00
35519;BME280;21627;48.216;16.482;2024-02-28T07:10:16;99905.81;;;8.24;100.00
35519;BME280;21627;48.216;16.482;2024-02-28T07:12:43;99911.84;;;8.26;100.00
35519;BME280;21627;48.216;16.482;2024-02-28T07:15:10;99918.78;;;8.33;100.00
35519;BME280;21627;48.216;16.482;2024-02-28T07:17:37;99925.81;;;8.42;100.00
35519;BME280;21627;48.216;16.482;2024-02-28T07:20:05;99906.81;;;8.38;100.00
35519;BME280;21627;48.216;16.482;2024-02-28T07:22:33;99921.63;;;8.53;100.00
35519;BME280;21627;48.216;16.482;2024-02-28T07:25:00;99935.44;;;8.61;100.00
35519;BME280;21627;48.216;16.482;2024-02-28T07:27:28;99943.28;;;8.68;100.00
35519;BME280;21627;48.216;16.482;2024-02-28T07:29:55;99936.38;;;8.65;100.00
35519;BME280;21627;48.216;16.482;2024-02-28T07:32:22;99936.44;;;8.70;100.00
35519;BME280;21627;48.216;16.482;2024-02-28T07:34:50;99937.25;;;8.69;100.00
35519;BME280;21627;48.216;16.482;2024-02-28T07:37:17;99945.16;;;8.84;100.00
35519;BME280;21627;48.216;16.482;2024-02-28T07:39:44;99946.06;;;8.89;100.00
35519;BME280;21627;48.216;16.482;2024-02-28T07:42:11;99946.03;;;8.84;100.00
35519;BME280;21627;48.216;16.482;2024-02-28T07:44:39;99934.91;;;8.92;100.00
35519;BME280;21627;48.216;16.482;2024-02-28T07:47:06;99948.84;;;9.12;100.00
35519;BME280;21627;48.216;16.482;2024-02-28T07:49:33;99951.44;;;9.10;100.00
35519;BME280;21627;48.216;16.482;2024-02-28T07:52:00;99956.59;;;9.12;100.00
35519;BME280;21627;48.216;16.482;2024-02-28T07:54:28;99958.44;;;9.22;100.00
35519;BME280;21627;48.216;16.482;2024-02-28T07:56:55;99953.16;;;9.15;100.00
35519;BME280;21627;48.216;16.482;2024-02-28T07:59:22;99956.69;;;9.23;100.00
35519;BME280;21627;48.216;16.482;2024-02-28T08:01:50;99968.81;;;9.30;100.00
35519;BME280;21627;48.216;16.482;2024-02-28T08:04:17;99969.72;;;9.35;100.00
35519;BME280;21627;48.216;16.482;2024-02-28T08:06:44;99969.72;;;9.35;100.00
35519;BME280;21627;48.216;16.482;2024-02-28T08:09:11;99977.47;;;9.40;100.00
35519;BME280;21627;48.216;16.482;2024-02-28T08:11:39;99978.44;;;9.51;100.00
35519;BME280;21627;48.216;16.482;2024-02-28T08:14:07;99975.03;;;9.60;100.00
35519;BME280;21627;48.216;16.482;2024-02-28T08:16:34;99979.41;;;9.70;100.00
35519;BME280;21627;48.216;16.482;2024-02-28T08:19:01;99989.78;;;9.73;100.00
35519;BME280;21627;48.216;16.482;2024-02-28T08:21:28;99991.56;;;9.79;100.00
35519;BME280;21627;48.216;16.482;2024-02-28T08:23:56;99997.63;;;9.85;100.00
35519;BME280;21627;48.216;16.482;2024-02-28T08:26:25;100000.22;;;9.85;100.00
35519;BME280;21627;48.216;16.482;2024-02-28T08:28:52;100005.38;;;9.85;100.00
35519;BME280;21627;48.216;16.482;2024-02-28T08:31:19;100001.97;;;9.92;100.00
35519;BME280;21627;48.216;16.482;2024-02-28T08:33:46;100002.03;;;10.02;100.00
35519;BME280;21627;48.216;16.482;2024-02-28T08:36:14;100002.91;;;10.01;100.00
35519;BME280;21627;48.216;16.482;2024-02-28T08:38:42;100017.59;;;10.14;100.00
35519;BME280;21627;48.216;16.482;2024-02-28T08:41:09;100020.22;;;10.15;100.00
35519;BME280;21627;48.216;16.482;2024-02-28T08:43:40;100012.41;;;10.06;100.00
35519;BME280;21627;48.216;16.482;2024-02-28T08:46:07;100026.19;;;10.13;100.00
35519;BME280;21627;48.216;16.482;2024-02-28T08:48:35;100018.50;;;10.19;100.00
35519;BME280;21627;48.216;16.482;2024-02-28T08:51:04;100019.34;;;10.13;100.00
35519;BME280;21627;48.216;16.482;2024-02-28T08:53:32;100031.41;;;10.16;100.00
35519;BME280;21627;48.216;16.482;2024-02-28T08:55:59;100028.78;;;10.13;100.00
35519;BME280;21627;48.216;16.482;2024-02-28T08:58:26;100038.34;;;10.25;100.00
35519;BME280;21627;48.216;16.482;2024-02-28T09:00:54;100038.44;;;10.37;100.00
35519;BME280;21627;48.216;16.482;2024-02-28T09:03:21;100038.41;;;10.35;100.00
35519;BME280;21627;48.216;16.482;2024-02-28T09:05:49;100033.28;;;10.38;100.00
35519;BME280;21627;48.216;16.482;2024-02-28T09:08:16;100035.88;;;10.45;100.00
35519;BME280;21627;48.216;16.482;2024-02-28T09:10:43;100035.94;;;10.55;100.00
35519;BME280;21627;48.216;16.482;2024-02-28T09:13:11;100041.16;;;10.61;100.00
35519;BME280;21627;48.216;16.482;2024-02-28T09:15:39;100045.50;;;10.69;100.00
35519;BME280;21627;48.216;16.482;2024-02-28T09:18:07;100048.09;;;10.78;100.00
35519;BME280;21627;48.216;16.482;2024-02-28T09:20:36;100049.88;;;10.87;100.00
35519;BME280;21627;48.216;16.482;2024-02-28T09:23:03;100047.28;;;10.83;100.00
35519;BME280;21627;48.216;16.482;2024-02-28T09:25:30;100054.19;;;10.91;100.00
35519;BME280;21627;48.216;16.482;2024-02-28T09:27:59;100055.06;;;10.93;100.00
35519;BME280;21627;48.216;16.482;2024-02-28T09:30:27;100051.63;;;10.97;100.00
35519;BME280;21627;48.216;16.482;2024-02-28T09:33:08;100061.09;;;10.89;100.00
35519;BME280;21627;48.216;16.482;2024-02-28T09:35:36;100059.41;;;11.03;100.00
35519;BME280;21627;48.216;16.482;2024-02-28T09:38:03;100058.50;;;10.89;100.00
35519;BME280;21627;48.216;16.482;2024-02-28T09:40:31;100059.41;;;11.03;100.00
35519;BME280;21627;48.216;16.482;2024-02-28T09:43:02;100081.81;;;10.99;100.00
35519;BME280;21627;48.216;16.482;2024-02-28T09:45:31;100065.47;;;11.16;100.00
35519;BME280;21627;48.216;16.482;2024-02-28T09:47:59;100072.41;;;11.34;100.00
35519;BME280;21627;48.216;16.482;2024-02-28T09:50:27;100070.72;;;11.40;100.00
35519;BME280;21627;48.216;16.482;2024-02-28T09:52:55;100086.28;;;11.50;100.00
35519;BME280;21627;48.216;16.482;2024-02-28T09:55:36;100078.47;;;11.48;96.58
35519;BME280;21627;48.216;16.482;2024-02-28T09:58:04;100088.00;;;11.57;96.99
35519;BME280;21627;48.216;16.482;2024-02-28T10:00:33;100087.13;;;11.56;98.95
35519;BME280;21627;48.216;16.482;2024-02-28T10:03:03;100092.31;;;11.68;98.17
35519;BME280;21627;48.216;16.482;2024-02-28T10:05:33;100077.66;;;11.84;99.18
35519;BME280;21627;48.216;16.482;2024-02-28T10:08:01;100082.00;;;12.05;96.50
35519;BME280;21627;48.216;16.482;2024-02-28T10:10:28;100083.72;;;12.28;95.16
35519;BME280;21627;48.216;16.482;2024-02-28T10:12:57;100089.66;;;12.59;91.59
35519;BME280;21627;48.216;16.482;2024-02-28T10:15:31;100104.34;;;12.69;90.65
35519;BME280;21627;48.216;16.482;2024-02-28T10:17:58;100106.94;;;12.65;92.02
35519;BME280;21627;48.216;16.482;2024-02-28T10:20:25;100101.78;;;12.60;90.62
35519;BME280;21627;48.216;16.482;2024-02-28T10:22:52;100101.75;;;12.75;93.00
35519;BME280;21627;48.216;16.482;2024-02-28T10:25:20;100102.53;;;12.91;93.85
35519;BME280;21627;48.216;16.482;2024-02-28T10:27:48;100111.03;;;13.24;89.66
35519;BME280;21627;48.216;16.482;2024-02-28T10:30:15;100104.91;;;13.40;89.04
35519;BME280;21627;48.216;16.482;2024-02-28T10:32:50;100100.50;;;13.55;89.78
35519;BME280;21627;48.216;16.482;2024-02-28T10:35:18;100110.88;;;13.61;87.88
35519;BME280;21627;48.216;16.482;2024-02-28T10:37:52;100103.84;;;13.74;86.90
35519;BME280;21627;48.216;16.482;2024-02-28T10:40:21;100089.13;;;13.74;85.82
35519;BME280;21627;48.216;16.482;2024-02-28T10:42:49;100095.16;;;13.75;86.94
35519;BME280;21627;48.216;16.482;2024-02-28T10:45:18;100077.72;;;13.94;86.97
35519;BME280;21627;48.216;16.482;2024-02-28T10:48:07;100095.09;;;13.85;83.93
35519;BME280;21627;48.216;16.482;2024-02-28T10:50:35;100092.44;;;13.92;83.24
35519;BME280;21627;48.216;16.482;2024-02-28T10:53:03;100092.44;;;13.90;83.82
35519;BME280;21627;48.216;16.482;2024-02-28T10:55:37;100099.31;;;13.97;82.83
35519;BME280;21627;48.216;16.482;2024-02-28T10:58:08;100101.97;;;13.94;82.98
35519;BME280;21627;48.216;16.482;2024-02-28T11:00:40;100101.88;;;14.05;81.84
35519;BME280;21627;48.216;16.482;2024-02-28T11:03:17;100099.31;;;13.97;81.61
35519;BME280;21627;48.216;16.482;2024-02-28T11:05:44;100103.50;;;14.15;82.41
35519;BME280;21627;48.216;16.482;2024-02-28T11:08:29;100106.81;;;14.31;80.87
35519;BME280;21627;48.216;16.482;2024-02-28T11:10:57;100091.97;;;14.42;79.62
35519;BME280;21627;48.216;16.482;2024-02-28T11:13:27;100096.28;;;14.46;78.85
35519;BME280;21627;48.216;16.482;2024-02-28T11:15:55;100097.00;;;14.62;78.05
35519;BME280;21627;48.216;16.482;2024-02-28T11:18:25;100094.22;;;14.78;77.86
35519;BME280;21627;48.216;16.482;2024-02-28T11:20:52;100090.69;;;14.85;77.34
35519;BME280;21627;48.216;16.482;2024-02-28T11:23:19;100091.50;;;14.88;76.05
35519;BME280;21627;48.216;16.482;2024-02-28T11:25:46;100089.75;;;14.89;75.28
35519;BME280;21627;48.216;16.482;2024-02-28T11:28:15;100086.13;;;15.01;74.21
35519;BME280;21627;48.216;16.482;2024-02-28T11:30:42;100084.06;;;15.26;73.89
35519;BME280;21627;48.216;16.482;2024-02-28T11:33:10;100085.63;;;15.38;76.01
35519;BME280;21627;48.216;16.482;2024-02-28T11:35:37;100081.72;;;15.68;72.39
35519;BME280;21627;48.216;16.482;2024-02-28T11:38:06;100078.31;;;15.63;71.38
35519;BME280;21627;48.216;16.482;2024-02-28T11:40:33;100086.38;;;15.46;71.57
35519;BME280;21627;48.216;16.482;2024-02-28T11:43:01;100088.88;;;15.52;71.56
35519;BME280;21627;48.216;16.482;2024-02-28T11:45:30;100087.13;;;15.54;70.72
35519;BME280;21627;48.216;16.482;2024-02-28T11:47:58;100074.59;;;15.79;72.55
35519;BME280;21627;48.216;16.482;2024-02-28T11:50:25;100079.75;;;15.82;70.80
35519;BME280;21627;48.216;16.482;2024-02-28T11:52:53;100087.34;;;15.39;70.01
35519;BME280;21627;48.216;16.482;2024-02-28T11:55:20;100083.03;;;15.36;70.87
35519;BME280;21627;48.216;16.482;2024-02-28T11:57:48;100082.00;;;15.48;71.88
35519;BME280;21627;48.216;16.482;2024-02-28T12:00:15;100077.94;;;15.30;73.53
35519;BME280;21627;48.216;16.482;2024-02-28T12:02:42;100078.50;;;15.49;71.57
35519;BME280;21627;48.216;16.482;2024-02-28T12:05:09;100073.13;;;15.61;69.72
35519;BME280;21627;48.216;16.482;2024-02-28T12:07:37;100069.59;;;15.64;68.91
35519;BME280;21627;48.216;16.482;2024-02-28T12:10:05;100076.97;;;15.35;70.58
35519;BME280;21627;48.216;16.482;2024-02-28T12:12:33;100082.31;;;15.28;70.70
35519;BME280;21627;48.216;16.482;2024-02-28T12:15:02;100076.50;;;15.06;72.33
35519;BME280;21627;48.216;16.482;2024-02-28T12:17:32;100080.03;;;15.03;73.08
35519;BME280;21627;48.216;16.482;2024-02-28T12:19:59;100080.78;;;15.11;72.96
35519;BME280;21627;48.216;16.482;2024-02-28T12:22:27;100078.31;;;14.99;71.95
35519;BME280;21627;48.216;16.482;2024-02-28T12:24:55;100079.41;;;14.81;74.30
35519;BME280;21627;48.216;16.482;2024-02-28T12:27:22;100081.22;;;14.79;75.52
35519;BME280;21627;48.216;16.482;2024-02-28T12:29:49;100076.91;;;14.77;73.88
35519;BME280;21627;48.216;16.482;2024-02-28T12:32:17;100074.34;;;14.69;75.49
35519;BME280;21627;48.216;16.482;2024-02-28T12:34:45;100073.41;;;14.79;76.67
35519;BME280;21627;48.216;16.482;2024-02-28T12:37:12;100061.72;;;15.08;74.37
35519;BME280;21627;48.216;16.482;2024-02-28T12:39:39;100062.13;;;15.41;74.15
35519;BME280;21627;48.216;16.482;2024-02-28T12:42:07;100064.63;;;15.50;72.69
35519;BME280;21627;48.216;16.482;2024-02-28T12:44:35;100067.13;;;15.54;73.65
35519;BME280;21627;48.216;16.482;2024-02-28T12:47:02;100059.28;;;15.57;71.73